Time;durP1;ratioP1;P1;durP2;ratioP2;P2;SDS_P1;SDS_P2;PMS_P1;PMS_P2;Temp;Humidity;BMP_temperature;BMP_pressure;BME280_temperature;BME280_humidity;BME280_pressure;Samples;Min_cycle;Max_cycle;Signal;HPM_P1;HPM_P2
2021/12/15 00:00:34;;;;;;;141.60;55.73;;;9.90;99.90;;;;;;5119093;27;20521;-70
2021/12/15 00:03:00;;;;;;;130.98;55.63;;;9.90;99.90;;;;;;5116982;27;20047;-70
2021/12/15 00:05:27;;;;;;;135.20;56.45;;;9.90;99.90;;;;;;5120727;27;20035;-69
2021/12/15 00:07:55;;;;;;;133.55;55.67;;;9.90;99.90;;;;;;5123443;27;20416;-70
2021/12/15 00:10:22;;;;;;;133.43;56.15;;;9.90;99.90;;;;;;5123317;27;20045;-70
2021/12/15 00:12:48;;;;;;;128.07;57.13;;;9.90;99.90;;;;;;5123908;27;20601;-69
2021/12/15 00:15:15;;;;;;;121.18;55.20;;;9.90;99.90;;;;;;5112946;27;20487;-70
2021/12/15 00:17:41;;;;;;;121.85;54.83;;;9.90;99.90;;;;;;5123406;27;20466;-70
2021/12/15 00:20:11;;;;;;;124.13;54.55;;;9.90;99.90;;;;;;5117705;27;20054;-69
2021/12/15 00:22:37;;;;;;;126.90;55.85;;;9.90;99.90;;;;;;5125099;27;20054;-70
2021/12/15 00:25:08;;;;;;;116.88;53.70;;;9.90;99.90;;;;;;5121462;27;20066;-70
2021/12/15 00:27:35;;;;;;;118.80;54.28;;;9.90;99.90;;;;;;5126677;27;20125;-70
2021/12/15 00:30:04;;;;;;;114.78;54.22;;;9.90;99.90;;;;;;5126283;27;20047;-70
2021/12/15 00:32:29;;;;;;;119.15;53.50;;;9.90;99.90;;;;;;5115034;27;20048;-69
2021/12/15 00:34:55;;;;;;;115.10;53.75;;;9.90;99.90;;;;;;5125680;27;20096;-70
2021/12/15 00:37:21;;;;;;;121.93;54.47;;;9.90;99.90;;;;;;5122878;27;20553;-70
2021/12/15 00:39:48;;;;;;;114.65;53.78;;;9.90;99.90;;;;;;5125766;27;20039;-70
2021/12/15 00:42:14;;;;;;;125.45;54.55;;;9.90;99.90;;;;;;5123931;27;20063;-70
2021/12/15 00:44:41;;;;;;;116.80;52.40;;;9.90;99.90;;;;;;5123802;27;20071;-70
2021/12/15 00:47:07;;;;;;;115.03;52.70;;;9.90;99.90;;;;;;5123205;27;20042;-69
2021/12/15 00:49:33;;;;;;;124.05;52.95;;;9.90;99.90;;;;;;5134019;27;20577;-70
2021/12/15 00:51:59;;;;;;;126.10;53.58;;;10.00;99.90;;;;;;5119363;27;20089;-70
2021/12/15 00:54:26;;;;;;;120.22;52.60;;;9.90;99.90;;;;;;5120285;27;20500;-70
2021/12/15 00:56:53;;;;;;;121.30;52.70;;;10.00;99.90;;;;;;5111642;27;20057;-69
2021/12/15 00:59:19;;;;;;;;;;;10.00;99.90;;;;;;5125225;27;20040;-70
2021/12/15 01:01:45;;;;;;;113.55;52.00;;;9.90;99.90;;;;;;5123702;27;19941;-70
2021/12/15 01:04:14;;;;;;;116.35;52.03;;;9.90;99.90;;;;;;5118738;28;20049;-70
2021/12/15 01:06:43;;;;;;;108.78;50.13;;;10.00;99.90;;;;;;5125425;27;20374;-70
2021/12/15 01:09:13;;;;;;;100.00;48.67;;;10.00;99.90;;;;;;5117287;27;20121;-70
2021/12/15 01:12:05;;;;;;;108.75;48.58;;;10.00;99.90;;;;;;5113816;28;20043;-70
2021/12/15 01:20:17;;;;;;;;;;;10.00;99.90;;;;;;5117470;28;20950;-70
2021/12/15 01:22:46;;;;;;;110.90;46.88;;;10.00;99.90;;;;;;5123220;27;19919;-70
2021/12/15 01:25:26;;;;;;;102.22;47.35;;;10.00;99.90;;;;;;5124695;27;20032;-70
2021/12/15 01:27:52;;;;;;;112.70;47.08;;;10.00;99.90;;;;;;5112935;28;20043;-70
2021/12/15 01:30:22;;;;;;;94.45;46.97;;;9.90;99.90;;;;;;5123295;27;20035;-70
2021/12/15 01:32:48;;;;;;;109.75;46.75;;;10.00;99.90;;;;;;5114946;28;20067;-70
2021/12/15 01:35:15;;;;;;;104.78;46.55;;;10.00;99.90;;;;;;5118144;28;20100;-70
2021/12/15 01:37:42;;;;;;;102.87;47.50;;;10.00;99.90;;;;;;5109815;27;20039;-70
2021/12/15 01:40:15;;;;;;;113.80;47.58;;;10.00;99.90;;;;;;5122617;27;20508;-70
2021/12/15 01:42:41;;;;;;;113.40;47.28;;;10.00;99.90;;;;;;5116696;28;20039;-70
2021/12/15 01:48:08;;;;;;;113.13;46.63;;;10.00;99.90;;;;;;5111496;27;20043;-70
2021/12/15 01:50:34;;;;;;;109.20;47.00;;;10.00;99.90;;;;;;5122304;27;20125;-70
2021/12/15 01:53:01;;;;;;;110.57;47.33;;;10.00;99.90;;;;;;5120176;27;20043;-70
2021/12/15 01:55:27;;;;;;;108.40;46.53;;;10.00;99.90;;;;;;5113020;27;20049;-70
2021/12/15 01:57:53;;;;;;;101.45;45.50;;;10.00;99.90;;;;;;5124173;27;20126;-70
2021/12/15 02:00:28;;;;;;;99.00;45.92;;;9.90;99.90;;;;;;5126064;27;20126;-70
2021/12/15 02:02:56;;;;;;;104.15;45.28;;;10.00;99.90;;;;;;5120346;27;20047;-70
2021/12/15 02:05:26;;;;;;;96.40;44.33;;;9.90;99.90;;;;;;5119926;27;20147;-70
2021/12/15 02:07:52;;;;;;;89.13;43.47;;;9.90;99.90;;;;;;5119118;27;20138;-70
2021/12/15 02:10:24;;;;;;;87.10;43.50;;;9.90;99.90;;;;;;5123926;27;20040;-70
2021/12/15 02:12:50;;;;;;;88.68;43.03;;;9.90;99.90;;;;;;5121612;27;20410;-71
2021/12/15 02:15:27;;;;;;;85.53;41.28;;;9.90;99.90;;;;;;5136563;27;20048;-70
2021/12/15 02:17:53;;;;;;;90.03;42.37;;;9.90;99.90;;;;;;5127270;27;20118;-70
2021/12/15 02:20:24;;;;;;;82.78;40.42;;;9.90;99.90;;;;;;5120429;27;20116;-70
2021/12/15 02:22:50;;;;;;;89.88;41.08;;;10.00;99.90;;;;;;5146610;27;20126;-70
2021/12/15 02:25:16;;;;;;;81.15;39.80;;;9.90;99.90;;;;;;5130419;27;20169;-70
2021/12/15 02:27:42;;;;;;;77.70;39.50;;;9.90;99.90;;;;;;5129152;27;20043;-70
2021/12/15 02:30:31;;;;;;;77.68;40.25;;;9.90;99.90;;;;;;5128212;27;20050;-70
2021/12/15 02:38:14;;;;;;;88.05;40.80;;;9.90;99.90;;;;;;5116210;27;20043;-70
2021/12/15 02:40:40;;;;;;;82.45;41.53;;;9.90;99.90;;;;;;5116011;27;20078;-70
2021/12/15 02:43:06;;;;;;;86.75;43.20;;;9.90;99.90;;;;;;5120072;27;20031;-70
2021/12/15 02:45:32;;;;;;;79.22;41.05;;;9.90;99.90;;;;;;5116327;27;20039;-70
2021/12/15 02:47:58;;;;;;;89.47;42.40;;;9.90;99.90;;;;;;5123712;27;20477;-71
2021/12/15 02:50:28;;;;;;;90.25;43.80;;;9.90;99.90;;;;;;5125081;27;20051;-70
2021/12/15 02:52:58;;;;;;;86.32;42.58;;;9.90;99.90;;;;;;5120317;27;20047;-70
2021/12/15 02:55:24;;;;;;;82.35;43.47;;;9.90;99.90;;;;;;5126935;27;20050;-70
2021/12/15 02:57:50;;;;;;;78.35;41.42;;;9.90;99.90;;;;;;5153842;27;20058;-70
2021/12/15 03:00:21;;;;;;;76.35;41.63;;;9.90;99.90;;;;;;5119726;27;20834;-70
2021/12/15 03:05:42;;;;;;;77.80;40.90;;;9.90;99.90;;;;;;5125181;27;20454;-70
2021/12/15 03:08:22;;;;;;;80.32;41.50;;;9.90;99.90;;;;;;5125305;27;20046;-70
2021/12/15 03:16:21;;;;;;;76.68;40.00;;;9.90;99.90;;;;;;5120052;27;20036;-70
2021/12/15 03:18:47;;;;;;;81.60;41.78;;;9.90;99.90;;;;;;5112405;27;20039;-70
2021/12/15 03:21:17;;;;;;;76.75;43.05;;;9.90;99.90;;;;;;5126295;27;20041;-70
2021/12/15 03:23:51;;;;;;;75.95;41.17;;;9.90;99.90;;;;;;5126323;27;20042;-70
2021/12/15 03:26:24;;;;;;;88.10;41.88;;;9.90;99.90;;;;;;5123571;27;20085;-70
2021/12/15 03:37:21;;;;;;;89.68;43.63;;;9.90;99.90;;;;;;5118264;27;20051;-70
2021/12/15 03:39:48;;;;;;;94.28;46.28;;;9.80;99.90;;;;;;5118572;27;20645;-70
2021/12/15 03:42:18;;;;;;;95.85;46.22;;;9.90;99.90;;;;;;5123595;27;20099;-70
2021/12/15 03:44:46;;;;;;;97.07;46.47;;;9.90;99.90;;;;;;5121558;27;20494;-70
2021/12/15 03:47:20;;;;;;;103.60;47.72;;;9.80;99.90;;;;;;5122672;27;20125;-69
2021/12/15 03:49:46;;;;;;;99.85;48.38;;;9.90;99.90;;;;;;5115567;27;20058;-70
2021/12/15 03:52:12;;;;;;;97.78;47.33;;;9.90;99.90;;;;;;5119147;27;20455;-70
2021/12/15 03:54:39;;;;;;;96.72;47.00;;;9.90;99.90;;;;;;5121136;27;20048;-70
2021/12/15 03:57:05;;;;;;;112.65;50.45;;;9.90;99.90;;;;;;5125205;27;20035;-70
2021/12/15 03:59:33;;;;;;;102.25;49.22;;;9.90;99.90;;;;;;5116285;27;20044;-70
2021/12/15 04:01:59;;;;;;;110.75;48.95;;;9.90;99.90;;;;;;5119983;27;20043;-70
2021/12/15 04:04:25;;;;;;;104.40;49.55;;;9.80;99.90;;;;;;5117473;27;20036;-70
2021/12/15 04:06:52;;;;;;;112.97;50.38;;;9.90;99.90;;;;;;5112573;27;20039;-69
2021/12/15 04:09:19;;;;;;;116.53;52.50;;;9.90;99.90;;;;;;5116331;27;20440;-70
2021/12/15 04:11:46;;;;;;;109.82;49.97;;;9.90;99.90;;;;;;5118381;27;20043;-70
2021/12/15 04:14:20;;;;;;;112.18;52.15;;;9.90;99.90;;;;;;5125087;27;20039;-70
2021/12/15 04:17:00;;;;;;;119.03;52.42;;;9.80;99.90;;;;;;5120726;27;20043;-70
2021/12/15 04:19:26;;;;;;;111.15;52.22;;;9.80;99.90;;;;;;5108152;27;20039;-70
2021/12/15 04:21:52;;;;;;;109.38;52.13;;;9.80;99.90;;;;;;5118958;27;20137;-70
2021/12/15 04:24:19;;;;;;;116.43;53.88;;;9.90;99.90;;;;;;5156524;27;20126;-70
2021/12/15 04:26:47;;;;;;;114.65;53.78;;;9.80;99.90;;;;;;5113952;27;20031;-69
2021/12/15 04:29:13;;;;;;;119.80;54.58;;;9.80;99.90;;;;;;5118535;27;20046;-70
2021/12/15 04:31:44;;;;;;;112.90;52.63;;;9.80;99.90;;;;;;5106405;27;20059;-70
2021/12/15 04:34:12;;;;;;;127.15;54.92;;;9.80;99.90;;;;;;5125762;27;20043;-70
2021/12/15 04:36:46;;;;;;;122.28;56.10;;;9.80;99.90;;;;;;5122335;27;20044;-70
2021/12/15 04:39:14;;;;;;;126.05;56.83;;;9.80;99.90;;;;;;5125453;27;20474;-70
2021/12/15 04:41:46;;;;;;;122.78;56.97;;;9.80;99.90;;;;;;5122376;28;20059;-70
2021/12/15 04:44:12;;;;;;;141.27;58.95;;;9.80;99.90;;;;;;5124831;28;20050;-70
2021/12/15 04:46:41;;;;;;;120.40;57.72;;;9.80;99.90;;;;;;5153167;27;20363;-70
2021/12/15 04:49:09;;;;;;;134.82;59.15;;;9.90;99.90;;;;;;5122591;28;20444;-70
2021/12/15 04:51:35;;;;;;;128.93;59.78;;;9.80;99.90;;;;;;5121993;28;20063;-70
2021/12/15 04:54:01;;;;;;;133.93;60.28;;;9.80;99.90;;;;;;5118537;28;20035;-70
2021/12/15 04:56:26;;;;;;;133.10;59.95;;;9.80;99.90;;;;;;5124854;28;20035;-70
2021/12/15 04:58:55;;;;;;;136.07;61.38;;;9.80;99.90;;;;;;5123158;28;20478;-70
2021/12/15 05:01:21;;;;;;;147.80;61.55;;;9.80;99.90;;;;;;5117621;27;20035;-70
2021/12/15 05:03:47;;;;;;;141.32;62.85;;;9.80;99.90;;;;;;5116291;28;20032;-70
2021/12/15 05:06:14;;;;;;;143.68;63.72;;;9.80;99.90;;;;;;5126047;27;20085;-70
2021/12/15 05:08:41;;;;;;;143.30;62.92;;;9.80;99.90;;;;;;5119514;27;20044;-70
2021/12/15 05:11:09;;;;;;;125.90;60.97;;;9.80;99.90;;;;;;5112234;28;20381;-70
2021/12/15 05:13:36;;;;;;;144.05;62.80;;;9.80;99.90;;;;;;5118432;27;20040;-70
2021/12/15 05:16:03;;;;;;;141.77;65.32;;;9.80;99.90;;;;;;5118685;28;20040;-70
2021/12/15 05:18:29;;;;;;;136.48;64.30;;;9.80;99.90;;;;;;5124925;28;20046;-70
2021/12/15 05:20:55;;;;;;;137.32;64.25;;;9.80;99.90;;;;;;5125067;28;20124;-70
2021/12/15 05:23:27;;;;;;;132.07;64.22;;;9.80;99.90;;;;;;5122382;27;20039;-70
2021/12/15 05:25:53;;;;;;;130.77;64.30;;;9.80;99.90;;;;;;5128614;27;20059;-70
2021/12/15 05:28:19;;;;;;;137.30;64.57;;;9.80;99.90;;;;;;5128775;27;20031;-70
2021/12/15 05:30:45;;;;;;;132.52;63.78;;;9.80;99.90;;;;;;5114187;27;20085;-70
2021/12/15 05:33:10;;;;;;;137.70;66.57;;;9.80;99.90;;;;;;5128330;27;20043;-70
2021/12/15 05:35:37;;;;;;;133.15;66.43;;;9.80;99.90;;;;;;5123185;27;20747;-70
2021/12/15 05:38:05;;;;;;;135.48;68.10;;;9.80;99.90;;;;;;5127434;27;20633;-70
2021/12/15 05:40:31;;;;;;;;;;;9.80;99.90;;;;;;5128565;27;20047;-70
2021/12/15 05:42:57;;;;;;;134.55;64.97;;;9.80;99.90;;;;;;5123338;27;19927;-70
2021/12/15 05:45:28;;;;;;;129.70;64.35;;;9.80;99.90;;;;;;5128057;27;20103;-70
2021/12/15 05:47:56;;;;;;;130.20;65.22;;;9.80;99.90;;;;;;5120333;27;20048;-70
2021/12/15 05:50:26;;;;;;;140.75;65.40;;;9.80;99.90;;;;;;5116869;27;20043;-70
2021/12/15 05:52:52;;;;;;;129.93;64.57;;;9.80;99.90;;;;;;5125303;27;20088;-70
2021/12/15 05:55:18;;;;;;;123.50;63.58;;;9.80;99.90;;;;;;5122394;27;20043;-70
2021/12/15 05:57:45;;;;;;;131.48;64.18;;;9.80;99.90;;;;;;5119503;27;20492;-70
2021/12/15 06:00:17;;;;;;;123.85;61.85;;;9.80;99.90;;;;;;5129136;27;20067;-70
2021/12/15 06:02:44;;;;;;;118.82;62.90;;;9.80;99.90;;;;;;5117015;27;20557;-70
2021/12/15 06:05:11;;;;;;;126.50;65.97;;;9.80;99.90;;;;;;5127672;27;20039;-70
2021/12/15 06:07:38;;;;;;;141.35;66.03;;;9.80;99.90;;;;;;5121630;27;20054;-70
2021/12/15 06:10:06;;;;;;;123.65;66.22;;;9.80;99.90;;;;;;5127553;27;20172;-70
2021/12/15 06:12:32;;;;;;;146.18;68.25;;;9.80;99.90;;;;;;5126462;27;20074;-70
2021/12/15 06:14:58;;;;;;;128.80;64.90;;;9.80;99.90;;;;;;5128298;27;20566;-70
2021/12/15 06:17:26;;;;;;;133.40;65.28;;;9.80;99.90;;;;;;5126910;27;20371;-70
2021/12/15 06:19:56;;;;;;;135.93;66.63;;;9.80;99.90;;;;;;5128916;27;20047;-70
2021/12/15 06:22:26;;;;;;;127.13;66.90;;;9.80;99.90;;;;;;5127591;27;20165;-70
2021/12/15 06:24:53;;;;;;;131.45;65.57;;;9.80;99.90;;;;;;5129054;27;20121;-70
2021/12/15 06:27:20;;;;;;;131.82;67.72;;;9.80;99.90;;;;;;5111297;27;20046;-70
2021/12/15 06:29:48;;;;;;;128.93;64.85;;;9.80;99.90;;;;;;5127529;27;20053;-69
2021/12/15 06:32:15;;;;;;;128.75;62.75;;;9.80;99.90;;;;;;5147836;27;20039;-70
2021/12/15 06:34:41;;;;;;;136.43;66.85;;;9.80;99.90;;;;;;5121288;27;20088;-70
2021/12/15 06:37:07;;;;;;;126.50;64.30;;;9.80;99.90;;;;;;5118347;27;20668;-70
2021/12/15 06:39:34;;;;;;;124.97;65.18;;;9.80;99.90;;;;;;5110137;27;20051;-69
2021/12/15 06:41:59;;;;;;;132.60;64.68;;;9.80;99.90;;;;;;5125294;27;20040;-70
2021/12/15 06:44:25;;;;;;;121.78;62.60;;;9.80;99.90;;;;;;5119718;27;20530;-70
2021/12/15 06:47:23;;;;;;;133.48;65.18;;;9.80;99.90;;;;;;5122088;27;20031;-70
2021/12/15 07:00:43;;;;;;;119.63;62.35;;;9.80;99.90;;;;;;5130191;27;20062;-70
2021/12/15 07:03:09;;;;;;;131.70;63.38;;;9.90;99.90;;;;;;5124855;27;20042;-70
2021/12/15 07:05:35;;;;;;;122.20;63.25;;;9.80;99.90;;;;;;5121719;27;20054;-70
2021/12/15 07:08:04;;;;;;;126.72;63.88;;;9.80;99.90;;;;;;5125290;27;20092;-70
2021/12/15 07:10:32;;;;;;;127.10;65.57;;;9.80;99.90;;;;;;5116114;27;20051;-70
2021/12/15 07:12:59;;;;;;;121.68;62.75;;;9.80;99.90;;;;;;5111674;27;20240;-69
2021/12/15 07:15:26;;;;;;;127.50;62.72;;;9.80;99.90;;;;;;5119762;27;20032;-70
2021/12/15 07:18:00;;;;;;;121.05;60.42;;;9.80;99.90;;;;;;5154777;27;20039;-70
2021/12/15 07:20:46;;;;;;;123.07;61.65;;;9.80;99.90;;;;;;5124082;27;20070;-70
2021/12/15 07:23:15;;;;;;;124.33;62.23;;;9.80;99.90;;;;;;5144020;27;20039;-70
2021/12/15 07:25:43;;;;;;;127.60;61.63;;;9.80;99.90;;;;;;5152501;27;20837;-70
2021/12/15 07:28:09;;;;;;;120.30;58.47;;;9.90;99.90;;;;;;5127630;27;20051;-70
2021/12/15 07:30:37;;;;;;;118.80;60.83;;;9.90;99.90;;;;;;5122499;27;20126;-69
2021/12/15 07:33:04;;;;;;;121.63;60.63;;;9.80;99.90;;;;;;5114778;27;20047;-70
2021/12/15 07:35:31;;;;;;;120.30;59.47;;;9.80;99.90;;;;;;5142064;27;20074;-70
2021/12/15 07:37:57;;;;;;;119.63;60.17;;;9.80;99.90;;;;;;5117560;27;20039;-70
2021/12/15 07:40:25;;;;;;;128.23;62.78;;;9.80;99.90;;;;;;5125752;27;20471;-70
2021/12/15 07:43:03;;;;;;;124.20;61.65;;;9.90;99.90;;;;;;5121306;27;20057;-70
2021/12/15 07:45:28;;;;;;;119.82;62.05;;;9.90;99.90;;;;;;5111135;27;20032;-69
2021/12/15 07:47:59;;;;;;;123.00;62.45;;;9.90;99.90;;;;;;5106962;27;20066;-70
2021/12/15 07:50:26;;;;;;;113.85;56.33;;;9.80;99.90;;;;;;5119343;27;20092;-70
2021/12/15 07:52:52;;;;;;;117.65;61.85;;;9.90;99.90;;;;;;5159325;27;20089;-70
2021/12/15 07:55:19;;;;;;;125.53;60.15;;;9.80;99.90;;;;;;5106402;28;20079;-70
2021/12/15 07:57:45;;;;;;;122.03;58.97;;;9.80;99.90;;;;;;5123181;27;20047;-69
2021/12/15 08:00:14;;;;;;;114.47;59.58;;;9.80;99.90;;;;;;5126629;27;20043;-70
2021/12/15 08:02:40;;;;;;;120.22;59.75;;;9.80;99.90;;;;;;5156019;27;20051;-70
2021/12/15 08:05:06;;;;;;;120.70;60.33;;;9.90;99.90;;;;;;5126658;27;20046;-69
2021/12/15 08:07:32;;;;;;;123.22;61.42;;;9.80;99.90;;;;;;5125700;27;20094;-70
2021/12/15 08:09:58;;;;;;;121.60;57.97;;;9.80;99.90;;;;;;5126855;27;20542;-69
2021/12/15 08:12:26;;;;;;;118.07;59.42;;;9.90;99.90;;;;;;5119878;27;20035;-70
2021/12/15 08:14:51;;;;;;;118.20;59.83;;;9.90;99.90;;;;;;5109377;27;20031;-70
2021/12/15 08:17:17;;;;;;;116.28;56.72;;;9.90;99.90;;;;;;5122709;27;20054;-69
2021/12/15 08:19:42;;;;;;;121.43;59.15;;;9.90;99.90;;;;;;5143774;27;20043;-70
2021/12/15 08:22:08;;;;;;;115.15;56.80;;;9.90;99.90;;;;;;5111196;27;20046;-69
2021/12/15 08:24:34;;;;;;;115.43;56.10;;;9.90;99.90;;;;;;5139415;27;20090;-70
2021/12/15 08:27:00;;;;;;;114.38;56.53;;;9.90;99.90;;;;;;5123648;27;20524;-70
2021/12/15 08:29:25;;;;;;;116.35;58.80;;;9.90;99.90;;;;;;5124924;27;20126;-69
2021/12/15 08:31:51;;;;;;;117.93;58.22;;;9.90;99.90;;;;;;5123291;27;20149;-72
2021/12/15 08:34:17;;;;;;;122.07;57.67;;;9.90;99.90;;;;;;5123798;27;20039;-73
2021/12/15 08:36:43;;;;;;;115.35;57.75;;;9.90;99.90;;;;;;5113596;27;20502;-73
2021/12/15 08:39:10;;;;;;;114.95;54.97;;;9.90;99.90;;;;;;5106876;28;20074;-74
2021/12/15 08:41:36;;;;;;;117.63;55.55;;;10.00;99.90;;;;;;5106791;28;20130;-71
2021/12/15 08:44:06;;;;;;;118.70;57.33;;;9.90;99.90;;;;;;5114898;27;20114;-71
2021/12/15 08:46:38;;;;;;;120.07;58.75;;;9.90;99.90;;;;;;5115397;28;20058;-72
2021/12/15 08:49:04;;;;;;;116.85;55.83;;;10.00;99.90;;;;;;5108355;28;20304;-71
2021/12/15 08:51:31;;;;;;;112.68;53.88;;;10.00;99.90;;;;;;5118652;27;21594;-72
2021/12/15 08:54:03;;;;;;;112.53;56.97;;;10.00;99.90;;;;;;5111576;28;20050;-72
2021/12/15 08:56:29;;;;;;;111.13;54.97;;;10.00;99.90;;;;;;5117346;27;20032;-72
2021/12/15 08:58:56;;;;;;;118.03;55.70;;;10.00;99.90;;;;;;5146629;27;20070;-71
2021/12/15 09:01:22;;;;;;;112.32;54.38;;;10.00;99.90;;;;;;5120805;27;20300;-72
2021/12/15 09:03:48;;;;;;;121.65;55.65;;;10.00;99.90;;;;;;5113799;27;20035;-72
2021/12/15 09:06:14;;;;;;;113.15;54.47;;;10.00;99.90;;;;;;5115640;27;20043;-72
2021/12/15 09:08:41;;;;;;;120.13;56.95;;;10.00;99.90;;;;;;5112113;28;20406;-72
2021/12/15 09:11:11;;;;;;;116.38;55.75;;;10.10;99.90;;;;;;5151671;27;20050;-72
2021/12/15 09:13:38;;;;;;;115.05;55.67;;;10.10;99.90;;;;;;5130273;27;20043;-71
2021/12/15 09:16:11;;;;;;;114.43;57.33;;;10.10;99.90;;;;;;5117655;27;20039;-71
2021/12/15 09:18:39;;;;;;;105.93;53.05;;;10.10;99.90;;;;;;5148188;27;20056;-73
2021/12/15 09:21:08;;;;;;;110.15;54.05;;;10.10;99.90;;;;;;5127078;27;20410;-71
2021/12/15 09:23:34;;;;;;;114.38;54.25;;;10.10;99.90;;;;;;5117852;27;20047;-72
2021/12/15 09:26:00;;;;;;;107.68;52.75;;;10.10;99.90;;;;;;5111577;27;20036;-70
2021/12/15 09:28:26;;;;;;;102.38;52.15;;;10.10;99.90;;;;;;5111874;27;20100;-70
2021/12/15 09:30:53;;;;;;;109.88;53.55;;;10.10;99.90;;;;;;5109614;28;20118;-70
2021/12/15 09:33:26;;;;;;;109.68;52.63;;;10.10;99.90;;;;;;5110479;27;20039;-71
2021/12/15 09:35:52;;;;;;;111.65;54.45;;;10.20;99.90;;;;;;5114017;27;20070;-71
2021/12/15 09:38:19;;;;;;;102.80;52.10;;;10.20;99.90;;;;;;5138280;27;20039;-70
2021/12/15 09:40:47;;;;;;;106.10;53.38;;;10.20;99.90;;;;;;5118973;27;20035;-70
2021/12/15 09:43:13;;;;;;;103.72;52.05;;;10.20;99.90;;;;;;5113305;27;20118;-70
2021/12/15 10:02:28;;;;;;;105.63;51.42;;;10.20;99.90;;;;;;5124309;27;20128;-69
2021/12/15 10:04:32;;;;;;;105.47;51.90;;;10.30;99.90;;;;;;5109880;27;20051;-69
2021/12/15 10:18:04;;;;;;;93.88;49.78;;;10.50;99.90;;;;;;5142849;27;20044;-73
2021/12/15 10:20:31;;;;;;;102.68;48.60;;;10.50;99.90;;;;;;5115541;27;20092;-72
2021/12/15 10:23:01;;;;;;;91.32;48.75;;;10.50;99.90;;;;;;5142715;27;20051;-73
2021/12/15 10:25:31;;;;;;;88.45;46.15;;;10.50;99.90;;;;;;5111475;27;20565;-72
2021/12/15 10:28:10;;;;;;;95.63;47.67;;;10.50;99.90;;;;;;5110522;27;20059;-74
2021/12/15 10:30:43;;;;;;;94.22;49.13;;;10.50;99.90;;;;;;5113129;27;20035;-71
2021/12/15 10:33:20;;;;;;;102.60;51.28;;;10.50;99.90;;;;;;5119667;27;20031;-72
2021/12/15 10:35:49;;;;;;;102.20;51.95;;;10.60;99.90;;;;;;5112050;27;20052;-70
2021/12/15 10:38:18;;;;;;;102.13;50.35;;;10.60;99.90;;;;;;5126035;27;20043;-71
2021/12/15 10:41:02;;;;;;;97.22;51.13;;;10.60;99.90;;;;;;5125320;27;20054;-71
2021/12/15 10:43:33;;;;;;;94.65;48.38;;;10.60;99.90;;;;;;5128116;27;20051;-69
2021/12/15 10:46:11;;;;;;;92.70;46.50;;;10.60;99.90;;;;;;5149590;27;20055;-71
2021/12/15 10:48:49;;;;;;;90.63;47.88;;;10.60;99.90;;;;;;5108145;27;20070;-70
2021/12/15 10:51:27;;;;;;;94.72;47.67;;;10.50;99.90;;;;;;5109333;27;20558;-70
2021/12/15 10:53:55;;;;;;;;;;;10.50;99.90;;;;;;5111003;27;20047;-70
2021/12/15 10:56:26;;;;;;;89.78;46.55;;;10.50;99.90;;;;;;5115111;27;19930;-70
2021/12/15 10:58:54;;;;;;;89.10;46.22;;;10.50;99.90;;;;;;5110653;27;20124;-71
2021/12/15 11:01:35;;;;;;;87.13;47.08;;;10.50;99.90;;;;;;5150444;27;20044;-72
2021/12/15 11:04:02;;;;;;;87.05;45.42;;;10.50;99.90;;;;;;5110601;27;20054;-76
2021/12/15 11:06:33;;;;;;;86.15;45.15;;;10.50;99.90;;;;;;5117656;27;20082;-69
2021/12/15 11:09:24;;;;;;;81.00;42.90;;;10.60;99.90;;;;;;5108112;27;20692;-70
2021/12/15 11:12:04;;;;;;;71.90;41.42;;;10.60;99.90;;;;;;5107896;27;20622;-70
2021/12/15 11:14:35;;;;;;;74.45;41.97;;;10.50;99.90;;;;;;5120982;27;20039;-72
2021/12/15 11:17:18;;;;;;;75.50;43.53;;;10.60;99.90;;;;;;5126862;27;20062;-73
2021/12/15 11:19:56;;;;;;;71.72;41.65;;;10.60;99.90;;;;;;5109166;27;20534;-72
2021/12/15 11:22:44;;;;;;;74.93;42.88;;;10.60;99.90;;;;;;5151103;27;20074;-73
2021/12/15 11:25:17;;;;;;;72.38;41.25;;;10.60;99.90;;;;;;5124117;27;20082;-72
2021/12/15 11:27:48;;;;;;;72.15;41.63;;;10.60;99.90;;;;;;5107848;27;20074;-73
2021/12/15 11:30:22;;;;;;;66.70;39.40;;;10.70;99.90;;;;;;5109502;27;20075;-73
2021/12/15 11:32:51;;;;;;;64.03;39.17;;;10.70;99.90;;;;;;5122860;27;20047;-72
2021/12/15 11:35:37;;;;;;;58.70;36.38;;;10.80;99.90;;;;;;5127393;27;20043;-72
2021/12/15 11:38:07;;;;;;;57.42;36.55;;;10.80;99.90;;;;;;5112843;27;20047;-72
2021/12/15 11:40:45;;;;;;;58.42;35.70;;;10.90;99.90;;;;;;5108256;27;20078;-74
2021/12/15 11:43:26;;;;;;;59.22;35.75;;;10.90;99.90;;;;;;5107021;28;20056;-74
2021/12/15 11:45:52;;;;;;;61.72;36.13;;;10.90;99.90;;;;;;5140919;27;20043;-74
2021/12/15 11:48:22;;;;;;;56.20;35.58;;;11.00;99.90;;;;;;5127211;27;20135;-75
2021/12/15 11:50:56;;;;;;;58.25;35.55;;;10.90;99.90;;;;;;5125906;27;20039;-74
2021/12/15 11:53:34;;;;;;;61.78;36.28;;;10.90;99.90;;;;;;5116273;27;20051;-75
2021/12/15 11:56:28;;;;;;;65.45;37.17;;;11.00;99.90;;;;;;5122156;27;20066;-75
2021/12/15 11:58:59;;;;;;;59.92;35.42;;;11.00;99.90;;;;;;5107750;27;20047;-75
2021/12/15 12:01:46;;;;;;;62.03;36.53;;;11.00;99.90;;;;;;5109312;27;20208;-73
2021/12/15 12:04:29;;;;;;;56.20;34.33;;;10.90;99.90;;;;;;5156062;27;20069;-73
2021/12/15 12:07:31;;;;;;;60.45;35.97;;;11.00;99.90;;;;;;5126047;27;20733;-71
2021/12/15 12:10:18;;;;;;;56.22;34.60;;;11.00;99.90;;;;;;5120047;27;20054;-70
2021/12/15 12:12:53;;;;;;;54.15;34.72;;;10.90;99.90;;;;;;5115729;27;20053;-70
2021/12/15 12:15:23;;;;;;;58.10;35.00;;;10.90;99.90;;;;;;5119086;27;20099;-70
2021/12/15 12:17:52;;;;;;;60.40;35.83;;;10.90;99.90;;;;;;5123012;27;20113;-69
2021/12/15 12:20:21;;;;;;;58.70;34.42;;;10.90;99.90;;;;;;5121485;27;20038;-70
2021/12/15 12:22:49;;;;;;;59.40;35.35;;;10.80;99.90;;;;;;5116456;27;20100;-70
2021/12/15 12:25:19;;;;;;;;;;;10.90;99.90;;;;;;5116475;27;20124;-70
2021/12/15 12:27:47;;;;;;;54.38;33.28;;;10.80;99.90;;;;;;5114614;27;19919;-69
2021/12/15 12:30:24;;;;;;;53.35;32.35;;;10.80;99.90;;;;;;5113788;27;20051;-69
2021/12/15 12:32:51;;;;;;;56.53;35.30;;;10.80;99.90;;;;;;5115671;27;20051;-70
2021/12/15 12:35:19;;;;;;;;;;;10.80;99.90;;;;;;5122815;27;20039;-69
2021/12/15 12:37:54;;;;;;;56.30;34.03;;;10.80;99.90;;;;;;5125781;27;19926;-69
2021/12/15 12:40:30;;;;;;;54.15;33.25;;;10.80;99.90;;;;;;5123341;27;20043;-71
2021/12/15 12:42:57;;;;;;;51.70;32.67;;;10.90;99.90;;;;;;5124060;27;20046;-72
2021/12/15 12:45:34;;;;;;;49.05;29.80;;;10.90;99.90;;;;;;5122202;27;20039;-71
2021/12/15 12:48:59;;;;;;;45.17;30.13;;;10.80;99.90;;;;;;5120940;28;20036;-72
2021/12/15 12:59:56;;;;;;;49.13;31.48;;;10.90;99.90;;;;;;5107563;28;20070;-70
2021/12/15 13:02:25;;;;;;;49.88;31.27;;;10.90;99.90;;;;;;5116179;28;20103;-71
2021/12/15 13:04:53;;;;;;;50.45;31.20;;;10.90;99.90;;;;;;5114733;27;20518;-71
2021/12/15 13:07:49;;;;;;;52.67;32.13;;;10.90;99.90;;;;;;5106792;28;20078;-70
2021/12/15 13:10:18;;;;;;;50.58;31.30;;;10.90;99.90;;;;;;5109715;27;20047;-70
2021/12/15 13:12:47;;;;;;;51.10;31.60;;;10.90;99.90;;;;;;5110228;28;20082;-70
2021/12/15 13:15:22;;;;;;;51.63;30.58;;;10.80;99.90;;;;;;5124895;28;20100;-70
2021/12/15 13:18:01;;;;;;;53.22;32.40;;;10.80;99.90;;;;;;5154505;27;20046;-69
2021/12/15 13:20:31;;;;;;;49.35;30.75;;;10.80;99.90;;;;;;5109396;28;20072;-69
2021/12/15 13:23:32;;;;;;;47.35;31.42;;;10.80;99.90;;;;;;5111791;28;20051;-69
2021/12/15 13:28:48;;;;;;;42.67;26.67;;;10.80;99.90;;;;;;5132083;27;20391;-69
2021/12/15 13:31:18;;;;;;;47.75;28.13;;;10.80;99.90;;;;;;5117750;28;20294;-69
2021/12/15 13:33:56;;;;;;;40.67;25.95;;;10.80;99.90;;;;;;5105070;28;20082;-70
2021/12/15 13:36:30;;;;;;;39.80;26.13;;;10.80;99.90;;;;;;5117785;27;20123;-70
2021/12/15 13:39:15;;;;;;;37.88;25.83;;;10.80;99.90;;;;;;5113740;28;20083;-70
2021/12/15 13:42:00;;;;;;;38.30;26.27;;;10.80;99.90;;;;;;5139927;27;20044;-71
2021/12/15 13:44:30;;;;;;;41.45;24.67;;;10.80;99.90;;;;;;5106951;27;20078;-71
2021/12/15 13:47:04;;;;;;;42.47;27.10;;;10.80;99.90;;;;;;5126529;27;20050;-71
2021/12/15 13:49:41;;;;;;;41.75;26.40;;;10.80;99.90;;;;;;5111595;27;20463;-70
2021/12/15 13:52:14;;;;;;;38.22;23.90;;;10.80;99.90;;;;;;5115606;27;20043;-70
2021/12/15 13:54:40;;;;;;;43.65;26.30;;;10.80;99.90;;;;;;5125825;27;20136;-70
2021/12/15 13:57:12;;;;;;;37.40;23.73;;;10.80;99.90;;;;;;5111054;28;20071;-71
2021/12/15 13:59:42;;;;;;;36.13;22.70;;;10.80;99.90;;;;;;5111907;27;20039;-71
2021/12/15 14:02:25;;;;;;;32.00;20.08;;;10.80;99.90;;;;;;5144576;27;20075;-70